Time;durP1;ratioP1;P1;durP2;ratioP2;P2;SDS_P1;SDS_P2;PMS_P1;PMS_P2;Temp;Humidity;BMP_temperature;BMP_pressure;BME280_temperature;BME280_humidity;BME280_pressure;Samples;Min_cycle;Max_cycle;Signal;HPM_P1;HPM_P2
2021/03/06 00:00:28;;;;;;;14.93;5.97;;;;;;;-2.01;99.96;102592.16;5085292;28;20298;-69
2021/03/06 00:02:53;;;;;;;16.90;6.43;;;;;;;-1.96;100.00;102587.22;5053828;28;20197;-69
2021/03/06 00:05:20;;;;;;;25.07;9.47;;;;;;;-1.85;100.00;102588.72;5053630;28;20199;-69
2021/03/06 00:07:46;;;;;;;29.07;14.53;;;;;;;-1.81;100.00;102594.59;5088960;28;20201;-69
2021/03/06 00:10:12;;;;;;;26.03;13.00;;;;;;;-1.87;100.00;102595.16;5043377;28;20183;-69
2021/03/06 00:12:42;;;;;;;21.00;10.13;;;;;;;-1.86;100.00;102587.03;5075714;28;20182;-69
2021/03/06 00:15:11;;;;;;;18.97;9.53;;;;;;;-1.68;100.00;102585.28;5058803;28;20199;-69
2021/03/06 00:17:37;;;;;;;17.87;8.73;;;;;;;-1.83;100.00;102581.44;5060137;28;20186;-69
2021/03/06 00:20:09;;;;;;;11.27;5.17;;;;;;;-1.97;100.00;102590.88;5075229;28;20209;-68
2021/03/06 00:22:34;;;;;;;20.80;9.77;;;;;;;-2.11;100.00;102596.63;5089039;28;20222;-69
2021/03/06 00:25:00;;;;;;;12.20;7.27;;;;;;;-2.12;100.00;102600.31;5039130;28;20247;-68
2021/03/06 00:27:26;;;;;;;15.80;8.13;;;;;;;-1.97;100.00;102601.53;5054690;28;20727;-69
2021/03/06 00:29:54;;;;;;;18.70;9.43;;;;;;;-1.96;100.00;102596.03;5072198;28;20187;-68
2021/03/06 00:32:22;;;;;;;18.17;10.43;;;;;;;-2.07;100.00;102600.69;5102836;28;20601;-69
2021/03/06 00:34:47;;;;;;;17.13;8.83;;;;;;;-2.05;100.00;102594.25;5070530;28;20218;-69
2021/03/06 00:37:13;;;;;;;16.40;8.63;;;;;;;-2.16;100.00;102593.56;5069850;28;20223;-70
2021/03/06 00:39:40;;;;;;;14.90;8.90;;;;;;;-2.21;100.00;102595.84;5070340;28;20179;-68
2021/03/06 00:42:06;;;;;;;16.50;8.03;;;;;;;-2.29;100.00;102599.22;5068860;28;20237;-69
2021/03/06 00:44:36;;;;;;;12.67;6.77;;;;;;;-2.28;100.00;102600.88;5086804;28;20736;-69
2021/03/06 00:47:06;;;;;;;10.33;5.80;;;;;;;-2.28;100.00;102594.72;5053625;28;20226;-69
2021/03/06 00:49:32;;;;;;;7.13;4.57;;;;;;;-2.33;100.00;102596.97;5070628;28;20686;-68
2021/03/06 00:52:01;;;;;;;4.90;3.13;;;;;;;-2.39;100.00;102592.22;5052527;28;20258;-69
2021/03/06 00:54:28;;;;;;;10.90;6.13;;;;;;;-2.52;100.00;102591.66;5070154;28;20850;-69
2021/03/06 00:56:54;;;;;;;14.63;10.50;;;;;;;-2.48;100.00;102586.91;5053244;28;20232;-69
2021/03/06 00:59:21;;;;;;;13.40;8.23;;;;;;;-2.51;100.00;102598.69;5053537;28;20656;-69
2021/03/06 01:01:48;;;;;;;9.50;6.20;;;;;;;-2.43;100.00;102590.00;5068337;28;20601;-69
2021/03/06 01:04:17;;;;;;;7.37;4.67;;;;;;;-2.34;100.00;102589.97;5103960;28;20182;-69
2021/03/06 01:06:42;;;;;;;6.47;4.57;;;;;;;-2.25;100.00;102583.81;5086155;28;20219;-70
2021/03/06 01:09:10;;;;;;;6.83;5.17;;;;;;;-2.31;100.00;102587.00;5053366;28;20875;-69
2021/03/06 01:11:36;;;;;;;7.93;5.20;;;;;;;-2.42;100.00;102581.84;5085929;28;20265;-69
2021/03/06 01:14:04;;;;;;;7.27;5.70;;;;;;;-2.48;100.00;102587.75;5070264;28;20709;-68
2021/03/06 01:16:32;;;;;;;7.47;4.73;;;;;;;-2.45;100.00;102584.81;5069063;28;20210;-69
2021/03/06 01:18:58;;;;;;;7.00;4.07;;;;;;;-2.47;100.00;102583.25;5052597;28;20185;-69
2021/03/06 01:21:23;;;;;;;23.27;12.60;;;;;;;-2.49;100.00;102586.09;5035744;28;20230;-69
2021/03/06 01:23:49;;;;;;;12.10;6.33;;;;;;;-2.61;100.00;102579.22;5052229;28;20220;-69
2021/03/06 01:26:14;;;;;;;6.13;3.40;;;;;;;-2.61;100.00;102581.88;5068690;28;20287;-69
2021/03/06 01:28:40;;;;;;;4.10;2.80;;;;;;;-2.67;100.00;102571.81;5052893;28;20570;-69
2021/03/06 01:31:06;;;;;;;4.47;2.63;;;;;;;-2.55;100.00;102576.00;5052067;28;20705;-69
2021/03/06 01:33:31;;;;;;;5.73;2.70;;;;;;;-2.67;100.00;102576.31;5069812;28;20228;-69
2021/03/06 01:35:57;;;;;;;5.10;2.70;;;;;;;-2.61;100.00;102565.94;5068361;28;20234;-69
2021/03/06 01:38:24;;;;;;;4.00;2.30;;;;;;;-2.53;100.00;102568.75;5069184;28;20187;-69
2021/03/06 01:40:50;;;;;;;4.13;2.00;;;;;;;-2.59;100.00;102569.28;5069978;28;20724;-69
2021/03/06 01:43:17;;;;;;;2.20;1.50;;;;;;;-2.62;100.00;102560.75;5051680;28;20187;-68
2021/03/06 01:45:43;;;;;;;3.93;2.23;;;;;;;-2.79;100.00;102555.31;5068473;28;20214;-68
2021/03/06 01:48:08;;;;;;;7.33;2.10;;;;;;;-2.78;100.00;102564.94;5026636;28;20245;-69
2021/03/06 01:50:35;;;;;;;4.07;2.50;;;;;;;-2.68;100.00;102559.50;5031755;28;20304;-69
2021/03/06 01:53:02;;;;;;;4.30;2.03;;;;;;;-2.56;100.00;102563.69;5047946;28;20188;-69
2021/03/06 01:55:28;;;;;;;3.60;2.27;;;;;;;-2.47;100.00;102560.19;5031509;28;20231;-69
2021/03/06 01:57:53;;;;;;;6.67;2.27;;;;;;;-2.49;100.00;102567.47;5032363;28;20188;-68
2021/03/06 02:00:20;;;;;;;4.27;2.00;;;;;;;-2.60;100.00;102564.97;5048359;28;20215;-69
2021/03/06 02:02:45;;;;;;;3.47;2.27;;;;;;;-2.68;100.00;102560.50;5049432;28;20262;-69
2021/03/06 02:05:14;;;;;;;4.20;1.80;;;;;;;-2.70;100.00;102562.44;5015224;28;20707;-68
2021/03/06 02:07:42;;;;;;;5.30;2.13;;;;;;;-2.62;100.00;102548.31;5018316;28;20745;-69
2021/03/06 02:10:08;;;;;;;4.47;1.63;;;;;;;-2.50;100.00;102552.47;5031520;28;20180;-68
2021/03/06 02:13:23;;;;;;;5.43;2.13;;;;;;;-2.50;100.00;102546.34;5031175;28;20198;-69
2021/03/06 02:15:57;;;;;;;4.13;2.37;;;;;;;-2.52;100.00;102554.44;4990666;28;20228;-69
2021/03/06 02:18:26;;;;;;;6.37;2.13;;;;;;;-2.55;100.00;102552.06;5012813;28;20287;-69
2021/03/06 02:20:57;;;;;;;3.07;1.80;;;;;;;-2.68;100.00;102548.84;5001816;28;20231;-68
2021/03/06 02:24:19;;;;;;;6.23;2.20;;;;;;;-2.60;100.00;102551.66;5015251;28;20787;-69
2021/03/06 02:27:11;;;;;;;3.50;1.83;;;;;;;-2.68;100.00;102548.03;4974372;28;20248;-69
2021/03/06 02:29:50;;;;;;;8.53;2.10;;;;;;;-2.64;100.00;102552.94;5047818;28;20850;-69
2021/03/06 02:32:23;;;;;;;6.37;2.20;;;;;;;-2.81;100.00;102557.28;5050903;28;20718;-69
2021/03/06 02:34:59;;;;;;;4.33;2.20;;;;;;;-2.75;100.00;102556.72;5036282;28;20215;-68
2021/03/06 02:37:25;;;;;;;3.70;2.13;;;;;;;-2.87;100.00;102552.53;5051942;28;20231;-68
2021/03/06 02:39:54;;;;;;;4.73;2.03;;;;;;;-2.57;100.00;102551.38;5019578;28;20171;-69
2021/03/06 02:42:22;;;;;;;5.93;2.50;;;;;;;-2.44;100.00;102549.25;5035018;28;20238;-69
2021/03/06 02:44:48;;;;;;;7.80;3.23;;;;;;;-2.41;100.00;102550.78;5019453;28;20680;-68
2021/03/06 02:47:16;;;;;;;7.60;2.93;;;;;;;-2.40;100.00;102542.69;5018688;28;20230;-69
2021/03/06 02:49:55;;;;;;;7.77;2.63;;;;;;;-2.26;100.00;102539.56;5052490;28;20191;-69
2021/03/06 02:52:23;;;;;;;4.90;2.37;;;;;;;-2.24;100.00;102542.91;5034342;28;20318;-69
2021/03/06 02:54:51;;;;;;;6.43;2.67;;;;;;;-2.29;100.00;102537.16;5035805;28;20203;-69
2021/03/06 02:57:38;;;;;;;4.87;2.67;;;;;;;-2.54;100.00;102545.78;5051559;28;20712;-69
2021/03/06 03:00:05;;;;;;;3.90;2.87;;;;;;;-2.29;100.00;102540.69;5052386;28;20183;-69
2021/03/06 03:02:39;;;;;;;20.40;7.03;;;;;;;-2.37;100.00;102550.34;5051186;28;20220;-70
2021/03/06 03:05:08;;;;;;;13.60;4.20;;;;;;;-2.47;100.00;102546.03;5035489;28;20649;-69
2021/03/06 03:07:47;;;;;;;9.90;3.13;;;;;;;-2.55;100.00;102546.75;5053333;28;20656;-68
2021/03/06 03:10:13;;;;;;;4.93;2.30;;;;;;;-2.50;100.00;102539.19;5035757;28;20237;-68
2021/03/06 03:12:41;;;;;;;5.23;2.60;;;;;;;-2.56;100.00;102538.94;5034398;28;20184;-69
2021/03/06 03:15:18;;;;;;;5.27;2.43;;;;;;;-2.39;100.00;102536.38;5035214;28;20208;-69
2021/03/06 03:17:56;;;;;;;15.00;4.87;;;;;;;-2.33;100.00;102537.59;5035515;28;20182;-68
2021/03/06 03:20:31;;;;;;;11.73;4.77;;;;;;;-2.38;100.00;102537.19;5018680;28;20210;-69
2021/03/06 03:23:24;;;;;;;7.10;3.50;;;;;;;-2.54;100.00;102529.00;5034339;28;20214;-69
2021/03/06 03:25:49;;;;;;;4.87;2.63;;;;;;;-2.51;100.00;102534.88;5032016;28;20227;-69
2021/03/06 03:28:15;;;;;;;8.17;3.27;;;;;;;-2.53;100.00;102533.31;5068275;28;20190;-68
2021/03/06 03:30:43;;;;;;;7.27;3.27;;;;;;;-2.47;100.00;102528.28;5052250;28;20227;-69
2021/03/06 03:33:09;;;;;;;22.27;8.43;;;;;;;-2.56;100.00;102526.47;5034200;28;20191;-69
2021/03/06 03:35:37;;;;;;;24.60;9.67;;;;;;;-2.59;100.00;102532.06;5034137;28;20653;-69
2021/03/06 03:38:02;;;;;;;24.00;9.10;;;;;;;-2.55;100.00;102528.13;5051666;28;20216;-69
2021/03/06 03:40:28;;;;;;;27.13;9.10;;;;;;;-2.68;100.00;102520.63;5034291;28;20298;-69
2021/03/06 03:42:53;;;;;;;23.77;8.00;;;;;;;-2.83;100.00;102524.69;5033481;28;20180;-69
2021/03/06 03:45:20;;;;;;;8.30;3.60;;;;;;;-2.58;100.00;102528.44;5050746;28;20211;-69
2021/03/06 03:47:48;;;;;;;6.57;3.40;;;;;;;-2.74;100.00;102531.81;5051320;28;20203;-68
2021/03/06 03:50:17;;;;;;;7.27;3.30;;;;;;;-2.85;100.00;102531.97;5051815;28;20199;-69
2021/03/06 03:52:46;;;;;;;3.63;2.40;;;;;;;-2.68;100.00;102531.25;5033905;28;20183;-70
2021/03/06 03:55:14;;;;;;;7.47;2.90;;;;;;;-2.86;100.00;102532.94;5034084;28;20282;-68
2021/03/06 03:57:42;;;;;;;6.77;2.80;;;;;;;-2.95;100.00;102539.09;5034911;28;20167;-69
2021/03/06 04:00:12;;;;;;;4.90;2.40;;;;;;;-2.82;100.00;102529.00;5034565;28;20200;-68
2021/03/06 04:02:37;;;;;;;7.07;3.20;;;;;;;-2.95;100.00;102531.97;5049574;28;20314;-69
2021/03/06 04:05:04;;;;;;;7.53;3.50;;;;;;;-2.88;100.00;102534.91;5033887;28;20207;-69
2021/03/06 04:07:38;;;;;;;8.03;2.87;;;;;;;-2.67;100.00;102539.91;5050719;28;20172;-70
2021/03/06 04:10:07;;;;;;;8.33;3.13;;;;;;;-2.62;100.00;102532.34;5019090;28;20263;-68
2021/03/06 04:12:32;;;;;;;11.53;4.37;;;;;;;-2.63;100.00;102546.63;5013603;28;20314;-69
2021/03/06 04:14:58;;;;;;;5.77;3.20;;;;;;;-2.67;100.00;102537.25;5032187;28;20777;-69
2021/03/06 04:17:23;;;;;;;10.23;5.17;;;;;;;-2.54;100.00;102550.25;5013363;28;20220;-70
2021/03/06 04:19:49;;;;;;;14.83;6.87;;;;;;;-2.33;100.00;102546.41;4997769;28;20259;-69
2021/03/06 04:22:15;;;;;;;9.87;4.87;;;;;;;-2.15;100.00;102542.03;5012990;28;20220;-70
2021/03/06 04:24:40;;;;;;;10.23;5.17;;;;;;;-2.07;100.00;102544.81;5030646;28;20212;-69
2021/03/06 04:27:06;;;;;;;9.20;4.57;;;;;;;-1.88;100.00;102535.75;5030016;28;20228;-70
2021/03/06 04:29:31;;;;;;;11.00;4.70;;;;;;;-1.84;100.00;102539.81;5014428;28;20187;-69
2021/03/06 04:31:57;;;;;;;8.83;4.53;;;;;;;-1.64;100.00;102544.06;5029137;28;20227;-69
2021/03/06 04:34:23;;;;;;;13.40;4.40;;;;;;;-1.53;100.00;102528.72;5031678;28;20298;-70
2021/03/06 04:36:53;;;;;;;7.13;3.80;;;;;;;-1.53;100.00;102535.88;5029886;28;20239;-69
2021/03/06 04:39:19;;;;;;;5.40;3.20;;;;;;;-1.80;100.00;102532.38;5014029;28;20196;-68
2021/03/06 04:41:44;;;;;;;5.90;3.40;;;;;;;-1.92;100.00;102531.72;4996306;28;20242;-70
2021/03/06 04:44:13;;;;;;;6.37;2.97;;;;;;;-1.87;100.00;102541.91;4997707;28;20194;-70
2021/03/06 04:46:39;;;;;;;5.87;2.70;;;;;;;-2.04;100.00;102549.84;5029437;28;20216;-70
2021/03/06 04:49:04;;;;;;;4.83;2.90;;;;;;;-2.07;100.00;102555.44;5030299;28;20786;-69
2021/03/06 04:51:32;;;;;;;5.80;3.00;;;;;;;-1.98;100.00;102559.91;5013338;28;20235;-69
2021/03/06 04:53:58;;;;;;;8.00;3.70;;;;;;;-1.66;100.00;102546.03;5012210;28;20541;-70
2021/03/06 04:56:24;;;;;;;6.37;3.23;;;;;;;-1.40;100.00;102541.69;5012693;28;20226;-69
2021/03/06 04:58:50;;;;;;;8.43;3.23;;;;;;;-1.38;100.00;102537.03;5030362;28;20645;-69
2021/03/06 05:01:16;;;;;;;7.57;3.40;;;;;;;-1.33;100.00;102537.44;5029436;28;20259;-69
2021/03/06 05:03:41;;;;;;;7.60;3.90;;;;;;;-1.32;100.00;102533.75;5030502;28;20676;-69
2021/03/06 05:06:07;;;;;;;7.57;3.23;;;;;;;-1.12;100.00;102537.00;5029314;28;20228;-69
2021/03/06 05:08:32;;;;;;;6.70;3.60;;;;;;;-1.04;100.00;102533.56;5013415;28;20193;-70
2021/03/06 05:11:00;;;;;;;5.03;2.87;;;;;;;-1.06;100.00;102544.38;4996613;28;20220;-69
2021/03/06 05:13:26;;;;;;;9.53;2.77;;;;;;;-0.99;100.00;102537.47;5029000;28;20595;-69
2021/03/06 05:15:51;;;;;;;4.13;2.60;;;;;;;-1.09;100.00;102542.00;5028833;28;20228;-69
2021/03/06 05:18:17;;;;;;;7.47;2.70;;;;;;;-0.95;100.00;102546.81;5013487;28;20192;-69
2021/03/06 05:20:42;;;;;;;10.87;3.17;;;;;;;-0.79;100.00;102552.28;5030428;28;20783;-69
2021/03/06 05:23:08;;;;;;;4.53;3.10;;;;;;;-0.62;100.00;102543.47;5029083;28;20181;-69
2021/03/06 05:25:34;;;;;;;10.13;2.73;;;;;;;-0.55;100.00;102555.16;5033748;28;20310;-69
2021/03/06 05:27:59;;;;;;;7.57;2.73;;;;;;;-0.47;100.00;102547.25;5001340;28;20199;-69
2021/03/06 05:30:25;;;;;;;4.57;2.70;;;;;;;-0.37;100.00;102543.47;5016006;28;20176;-69
2021/03/06 05:32:50;;;;;;;8.53;2.50;;;;;;;-0.47;100.00;102544.56;5048365;28;20771;-69
2021/03/06 05:35:16;;;;;;;4.97;2.33;;;;;;;-0.49;100.00;102543.91;5048474;28;20215;-70
2021/03/06 05:37:44;;;;;;;6.73;2.30;;;;;;;-0.39;100.00;102536.63;5050123;28;20184;-71
2021/03/06 05:40:12;;;;;;;4.37;2.50;;;;;;;-0.29;100.00;102541.69;5049753;28;20168;-69
2021/03/06 05:42:38;;;;;;;5.10;2.43;;;;;;;-0.36;100.00;102539.81;5081851;28;20631;-69
2021/03/06 05:45:05;;;;;;;6.60;2.60;;;;;;;-0.22;100.00;102537.41;5032002;28;20241;-68
2021/03/06 05:47:31;;;;;;;9.57;3.10;;;;;;;-0.06;100.00;102524.16;5032708;28;20572;-69
2021/03/06 05:49:59;;;;;;;5.27;3.33;;;;;;;-0.22;100.00;102521.41;5049080;28;20185;-68
2021/03/06 05:52:24;;;;;;;6.97;3.20;;;;;;;-0.14;100.00;102531.28;5047752;28;20296;-69
2021/03/06 05:54:50;;;;;;;6.43;2.67;;;;;;;0.03;100.00;102528.53;5033158;28;20230;-69
2021/03/06 05:57:18;;;;;;;6.40;2.47;;;;;;;0.09;100.00;102528.75;5016729;28;20220;-68
2021/03/06 05:59:47;;;;;;;3.97;2.50;;;;;;;0.17;100.00;102531.47;5032370;28;20184;-68
2021/03/06 06:02:13;;;;;;;9.83;2.90;;;;;;;0.35;100.00;102534.03;5031157;28;20591;-68
2021/03/06 06:04:38;;;;;;;3.53;2.63;;;;;;;0.37;100.00;102524.00;5032248;28;20222;-69
2021/03/06 06:07:04;;;;;;;5.63;2.60;;;;;;;0.45;100.00;102530.25;5015265;28;20223;-68
2021/03/06 06:09:30;;;;;;;6.53;3.03;;;;;;;0.45;100.00;102525.72;5049028;28;20188;-68
2021/03/06 06:11:58;;;;;;;5.80;2.70;;;;;;;0.57;100.00;102524.44;5014699;28;20249;-69
2021/03/06 06:14:24;;;;;;;5.93;2.90;;;;;;;0.49;100.00;102528.91;5049031;28;20203;-69
2021/03/06 06:16:49;;;;;;;5.73;2.83;;;;;;;0.49;100.00;102527.06;5048401;28;20847;-68
2021/03/06 06:19:15;;;;;;;5.10;2.87;;;;;;;0.53;100.00;102532.94;5049216;28;20183;-69
2021/03/06 06:21:45;;;;;;;8.67;3.17;;;;;;;0.57;100.00;102534.28;5047730;28;20235;-69
2021/03/06 06:24:14;;;;;;;7.80;3.47;;;;;;;0.71;100.00;102542.50;5016498;28;20183;-69
2021/03/06 06:26:52;;;;;;;8.87;4.87;;;;;;;0.76;100.00;102535.69;5048519;28;20302;-69
2021/03/06 06:29:43;;;;;;;11.97;7.00;;;;;;;0.77;100.00;102537.38;5050452;28;20267;-68
2021/03/06 06:32:13;;;;;;;8.50;3.80;;;;;;;0.87;100.00;102542.56;5015563;28;20218;-69
2021/03/06 06:34:39;;;;;;;7.67;3.07;;;;;;;0.82;100.00;102535.03;5033821;28;20703;-69
2021/03/06 06:37:16;;;;;;;8.53;3.97;;;;;;;0.94;100.00;102535.56;5050365;28;20223;-69
2021/03/06 06:39:44;;;;;;;7.07;5.10;;;;;;;0.87;100.00;102535.38;5017938;28;20207;-69
2021/03/06 06:42:10;;;;;;;8.23;4.10;;;;;;;0.93;100.00;102536.56;5048882;28;20263;-70
2021/03/06 06:44:38;;;;;;;6.10;3.73;;;;;;;0.94;100.00;102533.72;5032489;28;20294;-69
2021/03/06 06:47:11;;;;;;;12.23;8.30;;;;;;;1.09;100.00;102544.59;5032721;28;20224;-70
2021/03/06 06:49:53;;;;;;;18.77;10.60;;;;;;;1.15;100.00;102545.63;5032794;28;20183;-69
2021/03/06 06:52:21;;;;;;;9.77;7.03;;;;;;;1.16;100.00;102554.47;5064314;28;20269;-69
2021/03/06 06:54:57;;;;;;;6.77;3.90;;;;;;;1.17;100.00;102558.81;5049873;28;20195;-69
2021/03/06 06:57:23;;;;;;;25.63;15.47;;;;;;;1.17;100.00;102546.28;5032632;28;20281;-71
2021/03/06 07:00:03;;;;;;;44.33;25.00;;;;;;;1.16;100.00;102560.66;5048786;28;20262;-69
2021/03/06 07:02:33;;;;;;;39.40;23.27;;;;;;;1.17;100.00;102542.75;5030404;28;20235;-68
2021/03/06 07:05:05;;;;;;;26.90;17.80;;;;;;;1.07;100.00;102543.94;5032345;28;20203;-68
2021/03/06 07:07:40;;;;;;;11.83;7.00;;;;;;;1.32;100.00;102549.97;5031786;28;20227;-69
2021/03/06 07:10:11;;;;;;;10.07;4.77;;;;;;;1.33;100.00;102554.31;5031057;28;20187;-70
2021/03/06 07:12:46;;;;;;;11.13;4.27;;;;;;;1.47;100.00;102553.66;5047526;28;20183;-69
2021/03/06 07:15:18;;;;;;;6.90;3.57;;;;;;;1.64;100.00;102555.31;5048860;28;20203;-69
2021/03/06 07:17:45;;;;;;;4.67;2.93;;;;;;;2.01;100.00;102549.22;5050768;28;20558;-70
2021/03/06 07:20:19;;;;;;;6.73;3.17;;;;;;;2.30;100.00;102549.50;5017968;28;20282;-68
2021/03/06 07:22:45;;;;;;;7.93;3.00;;;;;;;2.47;100.00;102551.09;5067978;28;20198;-68
2021/03/06 07:25:10;;;;;;;7.30;3.07;;;;;;;2.61;100.00;102545.00;5047040;28;20218;-69
2021/03/06 07:27:36;;;;;;;9.27;2.80;;;;;;;2.40;100.00;102542.94;5065418;28;20216;-69
2021/03/06 07:30:05;;;;;;;7.43;2.87;;;;;;;2.35;100.00;102552.50;5064991;28;20183;-70
2021/03/06 07:32:32;;;;;;;5.20;2.63;;;;;;;2.73;100.00;102552.50;5113595;28;20301;-69
2021/03/06 07:35:02;;;;;;;6.27;3.00;;;;;;;2.53;100.00;102550.41;5075094;28;20218;-69
2021/03/06 07:37:30;;;;;;;7.20;2.80;;;;;;;2.84;100.00;102552.94;5071647;28;20294;-68
2021/03/06 07:39:58;;;;;;;6.97;2.40;;;;;;;2.83;100.00;102551.25;5072012;28;20189;-69
2021/03/06 07:42:28;;;;;;;5.33;2.70;;;;;;;2.91;100.00;102556.59;5037515;28;20254;-69
2021/03/06 07:44:56;;;;;;;3.17;2.20;;;;;;;2.96;100.00;102556.88;5044664;28;20204;-69
2021/03/06 07:47:27;;;;;;;5.87;2.17;;;;;;;2.91;100.00;102553.91;5035129;28;20708;-69
2021/03/06 07:49:52;;;;;;;4.00;2.27;;;;;;;3.21;100.00;102561.91;5047955;28;20196;-69
2021/03/06 07:52:18;;;;;;;6.90;2.60;;;;;;;2.98;100.00;102544.13;5030564;28;20224;-68
2021/03/06 07:54:45;;;;;;;6.37;2.40;;;;;;;3.01;100.00;102559.88;5031362;28;20204;-69
2021/03/06 07:57:13;;;;;;;7.57;2.93;;;;;;;2.97;100.00;102558.56;5068722;28;20218;-69
2021/03/06 07:59:52;;;;;;;4.30;2.30;;;;;;;2.93;100.00;102570.66;5055054;28;20187;-70
2021/03/06 08:02:37;;;;;;;6.63;2.63;;;;;;;3.28;100.00;102573.63;5056981;28;20265;-69
2021/03/06 08:05:27;;;;;;;5.70;2.60;;;;;;;3.41;100.00;102564.94;5041509;28;20584;-70
2021/03/06 08:07:55;;;;;;;6.20;2.10;;;;;;;3.48;100.00;102572.97;5034369;28;20190;-70
2021/03/06 08:10:20;;;;;;;5.07;2.13;;;;;;;3.61;100.00;102575.88;5042583;28;20198;-69
2021/03/06 08:12:46;;;;;;;5.70;2.33;;;;;;;3.82;100.00;102570.66;5055902;28;20573;-70
2021/03/06 08:15:28;;;;;;;5.43;2.80;;;;;;;3.78;100.00;102580.09;5017817;28;20204;-69
2021/03/06 08:17:54;;;;;;;5.77;2.53;;;;;;;3.60;100.00;102587.63;5034782;28;20576;-69
2021/03/06 08:20:25;;;;;;;7.53;2.63;;;;;;;3.74;100.00;102578.78;5050793;28;20681;-69
2021/03/06 08:23:23;;;;;;;6.60;2.40;;;;;;;3.70;100.00;102588.22;5049914;28;20249;-67
2021/03/06 08:26:18;;;;;;;6.10;2.57;;;;;;;3.72;100.00;102579.97;5030697;28;20243;-68
2021/03/06 08:28:43;;;;;;;6.80;2.67;;;;;;;3.68;100.00;102581.34;5031432;28;20211;-68
2021/03/06 08:31:44;;;;;;;5.90;2.37;;;;;;;3.72;100.00;102575.44;5014812;28;20682;-69
2021/03/06 08:34:52;;;;;;;16.87;12.20;;;;;;;3.95;100.00;102578.91;5017865;28;20368;-69
2021/03/06 08:37:20;;;;;;;5.03;3.80;;;;;;;3.96;100.00;102596.72;5060542;28;20591;-69
2021/03/06 08:39:58;;;;;;;7.47;2.50;;;;;;;3.87;100.00;102595.97;5055015;28;20176;-69
2021/03/06 08:42:25;;;;;;;5.40;2.60;;;;;;;3.81;100.00;102586.94;5064371;28;20226;-70
2021/03/06 08:44:51;;;;;;;5.47;2.70;;;;;;;4.03;100.00;102578.84;5068783;28;20945;-68
2021/03/06 08:47:35;;;;;;;8.70;2.90;;;;;;;4.20;100.00;102582.00;5052365;28;20218;-70
2021/03/06 08:50:09;;;;;;;4.93;3.10;;;;;;;4.08;100.00;102587.19;5088512;28;20191;-73
2021/03/06 08:52:39;;;;;;;6.50;3.40;;;;;;;4.04;100.00;102599.34;5069009;28;20210;-68
2021/03/06 08:55:05;;;;;;;6.93;3.27;;;;;;;3.90;100.00;102595.59;5069669;28;20688;-68
2021/03/06 08:57:38;;;;;;;5.97;3.80;;;;;;;4.32;100.00;102585.94;5053604;28;20262;-68
2021/03/06 09:00:21;;;;;;;6.50;3.87;;;;;;;4.49;100.00;102597.34;5104332;28;20664;-67
2021/03/06 09:02:50;;;;;;;5.27;2.90;;;;;;;4.52;100.00;102594.28;5070653;28;20214;-69
2021/03/06 09:05:18;;;;;;;7.10;3.17;;;;;;;4.57;100.00;102601.59;5037204;28;20690;-69
2021/03/06 09:07:51;;;;;;;8.10;3.53;;;;;;;4.44;100.00;102600.56;5071561;28;20183;-69
2021/03/06 09:10:32;;;;;;;6.97;3.53;;;;;;;4.65;100.00;102603.34;5056840;28;20176;-69
2021/03/06 09:13:06;;;;;;;7.90;3.90;;;;;;;4.74;100.00;102602.22;5028950;28;20203;-69
2021/03/06 09:15:34;;;;;;;8.70;3.87;;;;;;;4.62;100.00;102601.06;5051796;28;20770;-70
2021/03/06 09:18:00;;;;;;;5.80;3.40;;;;;;;4.90;100.00;102604.72;5052613;28;20530;-71
2021/03/06 09:20:27;;;;;;;6.60;3.50;;;;;;;4.96;100.00;102594.03;5055308;28;20183;-71
2021/03/06 09:22:53;;;;;;;7.10;3.60;;;;;;;4.81;100.00;102587.84;5060044;28;20186;-70
2021/03/06 09:25:40;;;;;;;4.87;2.90;;;;;;;4.55;100.00;102592.03;5043194;28;20203;-70
2021/03/06 09:28:11;;;;;;;8.00;3.03;;;;;;;4.48;100.00;102593.81;5022729;28;20176;-70
2021/03/06 09:30:40;;;;;;;5.60;3.13;;;;;;;4.51;100.00;102601.50;5050571;28;20553;-67
2021/03/06 09:33:29;;;;;;;8.13;3.60;;;;;;;4.89;100.00;102600.34;5048821;28;20184;-70
2021/03/06 09:36:15;;;;;;;6.80;2.80;;;;;;;4.57;100.00;102600.75;5053778;28;20228;-70
2021/03/06 09:38:46;;;;;;;8.77;5.27;;;;;;;4.81;100.00;102603.16;5039334;28;20206;-69
2021/03/06 09:41:13;;;;;;;5.73;3.37;;;;;;;4.97;100.00;102593.84;5059434;28;20711;-69
2021/03/06 09:43:41;;;;;;;3.90;2.70;;;;;;;4.53;100.00;102596.78;5045359;28;20186;-68
2021/03/06 09:46:36;;;;;;;4.97;2.80;;;;;;;4.54;100.00;102595.75;5037852;28;20216;-69
2021/03/06 09:49:11;;;;;;;4.87;2.87;;;;;;;4.53;100.00;102599.47;5019371;28;20194;-70
2021/03/06 09:51:41;;;;;;;6.17;2.80;;;;;;;4.70;100.00;102592.88;5034295;28;20221;-70
2021/03/06 09:56:56;;;;;;;9.60;3.63;;;;;;;4.83;100.00;102591.19;5039806;28;20220;-68
2021/03/06 09:59:25;;;;;;;7.17;3.60;;;;;;;4.86;100.00;102589.97;5082178;28;20192;-68
2021/03/06 10:01:53;;;;;;;6.23;3.40;;;;;;;4.95;100.00;102583.47;5011251;28;20228;-67
2021/03/06 10:04:20;;;;;;;5.33;3.30;;;;;;;4.66;100.00;102588.88;5066412;28;20176;-67
2021/03/06 10:06:49;;;;;;;6.87;3.33;;;;;;;4.45;100.00;102602.25;5045675;28;20235;-68
2021/03/06 10:09:16;;;;;;;4.83;3.13;;;;;;;4.62;100.00;102599.19;5047977;28;20282;-69
2021/03/06 10:11:45;;;;;;;6.80;3.40;;;;;;;4.82;100.00;102599.47;5064694;28;20211;-68
2021/03/06 10:14:19;;;;;;;4.77;3.47;;;;;;;5.00;100.00;102595.34;5032235;28;20183;-68
2021/03/06 10:16:58;;;;;;;6.87;4.47;;;;;;;5.10;100.00;102587.78;5060444;28;20211;-69
2021/03/06 10:19:29;;;;;;;6.37;3.93;;;;;;;4.87;100.00;102592.50;5038405;28;20188;-69
2021/03/06 10:22:25;;;;;;;5.77;4.17;;;;;;;4.89;100.00;102587.75;5040950;28;20231;-69
2021/03/06 10:24:52;;;;;;;6.07;3.80;;;;;;;4.88;100.00;102593.31;5028133;28;20234;-68
2021/03/06 10:27:30;;;;;;;6.37;3.60;;;;;;;5.15;100.00;102591.59;5049598;28;20304;-69
2021/03/06 10:30:15;;;;;;;6.93;3.77;;;;;;;4.83;100.00;102595.72;5063248;28;20187;-69
2021/03/06 10:32:45;;;;;;;5.67;3.70;;;;;;;4.89;100.00;102595.84;5047756;28;20215;-69
2021/03/06 10:35:34;;;;;;;3.93;3.47;;;;;;;4.91;100.00;102593.78;5032162;28;20231;-70
2021/03/06 10:38:00;;;;;;;7.63;4.20;;;;;;;5.18;100.00;102602.00;5042464;28;20199;-69
2021/03/06 10:40:42;;;;;;;5.83;4.10;;;;;;;5.24;100.00;102601.22;5012161;28;20349;-70
2021/03/06 10:43:07;;;;;;;8.50;4.93;;;;;;;5.33;100.00;102605.47;5048005;28;20191;-67
2021/03/06 10:45:39;;;;;;;10.23;5.50;;;;;;;5.55;100.00;102610.69;5013435;28;20274;-68
2021/03/06 10:48:06;;;;;;;5.57;4.20;;;;;;;5.61;100.00;102596.44;5050757;28;20195;-69
2021/03/06 10:50:38;;;;;;;6.87;4.53;;;;;;;5.41;100.00;102590.00;5011959;28;20220;-69
2021/03/06 10:53:17;;;;;;;6.17;4.30;;;;;;;5.46;100.00;102584.88;5053409;28;20195;-72
2021/03/06 10:55:43;;;;;;;5.60;3.60;;;;;;;5.22;100.00;102595.19;5036519;28;20252;-68
2021/03/06 10:58:11;;;;;;;15.63;8.10;;;;;;;5.64;100.00;102593.34;5052684;28;20229;-68
2021/03/06 11:00:38;;;;;;;12.13;7.57;;;;;;;5.71;100.00;102582.63;5032895;28;20195;-68
2021/03/06 11:03:04;;;;;;;10.47;6.63;;;;;;;5.66;100.00;102587.75;5034598;28;20215;-68
2021/03/06 11:05:30;;;;;;;5.30;4.67;;;;;;;5.62;100.00;102590.00;5044924;28;20224;-69
2021/03/06 11:07:57;;;;;;;5.97;4.47;;;;;;;5.66;100.00;102590.44;5071283;28;20182;-69
2021/03/06 11:10:28;;;;;;;7.60;4.10;;;;;;;5.69;100.00;102590.91;5021188;28;20250;-68
2021/03/06 11:12:58;;;;;;;5.43;4.53;;;;;;;5.73;100.00;102594.06;5013499;28;20279;-68
2021/03/06 11:15:29;;;;;;;6.70;4.33;;;;;;;5.47;100.00;102591.09;5040885;28;20228;-69
2021/03/06 11:18:00;;;;;;;5.90;3.87;;;;;;;5.28;100.00;102599.81;5037812;28;20176;-69
2021/03/06 11:20:29;;;;;;;5.43;4.10;;;;;;;5.32;100.00;102600.28;5050690;28;20304;-69
2021/03/06 11:22:55;;;;;;;8.47;4.80;;;;;;;5.18;100.00;102596.59;5068623;28;20175;-70
2021/03/06 11:25:23;;;;;;;6.50;4.53;;;;;;;5.11;100.00;102598.38;5066056;28;20234;-72
2021/03/06 11:28:02;;;;;;;7.70;6.20;;;;;;;5.20;100.00;102599.94;5050191;28;20168;-68
2021/03/06 11:30:37;;;;;;;8.33;5.10;;;;;;;5.25;100.00;102602.03;5035119;28;20235;-69
2021/03/06 11:33:09;;;;;;;11.23;8.00;;;;;;;5.11;100.00;102605.59;5031643;28;20187;-69
2021/03/06 11:35:38;;;;;;;5.57;4.77;;;;;;;4.96;100.00;102596.72;5034489;28;20949;-68